createdAt,value
2022-07-31T00:01:41.503Z,26.40
2022-07-31T00:04:10.712Z,26.40
2022-07-31T00:06:42.295Z,26.40
2022-07-31T00:09:45.415Z,26.50
2022-07-31T00:12:01.472Z,26.50
2022-07-31T00:14:30.937Z,26.50
2022-07-31T00:17:00.837Z,26.50
2022-07-31T00:19:30.330Z,26.60
2022-07-31T00:21:59.734Z,26.60
2022-07-31T00:24:30.427Z,26.70
2022-07-31T00:27:00.223Z,26.70
2022-07-31T00:29:29.699Z,26.80
2022-07-31T00:31:59.287Z,26.80
2022-07-31T00:34:28.611Z,26.80
2022-07-31T00:36:57.925Z,26.90
2022-07-31T00:39:27.791Z,26.90
2022-07-31T00:41:57.252Z,26.90
2022-07-31T00:44:27.055Z,27.00
2022-07-31T00:46:56.385Z,27.10
2022-07-31T00:49:25.826Z,27.10
2022-07-31T00:52:07.613Z,27.20
2022-07-31T00:54:37.423Z,27.20
2022-07-31T00:57:07.676Z,27.30
2022-07-31T00:59:37.282Z,27.40
2022-07-31T01:02:06.734Z,27.50
2022-07-31T01:04:36.169Z,27.50
2022-07-31T01:07:06.567Z,27.60
2022-07-31T01:09:36.069Z,27.70
2022-07-31T01:12:11.558Z,27.80
2022-07-31T01:14:47.648Z,27.90
2022-07-31T01:17:19.101Z,28.00
2022-07-31T01:19:50.187Z,28.10
2022-07-31T01:22:37.702Z,28.20
2022-07-31T01:25:18.741Z,28.30
2022-07-31T01:27:56.811Z,28.40
2022-07-31T01:30:31.834Z,28.50
2022-07-31T01:33:09.864Z,28.70
2022-07-31T01:35:54.166Z,28.70
2022-07-31T01:38:31.283Z,28.70
2022-07-31T01:41:03.171Z,28.70
2022-07-31T01:43:42.271Z,28.70
2022-07-31T01:46:16.492Z,28.80
2022-07-31T01:48:46.397Z,28.80
2022-07-31T01:51:16.462Z,28.90
2022-07-31T01:53:49.711Z,29.00
2022-07-31T01:56:22.440Z,29.10
2022-07-31T01:58:52.451Z,29.20
2022-07-31T02:01:26.999Z,29.30
2022-07-31T02:04:00.703Z,29.30
2022-07-31T02:06:30.967Z,29.40
2022-07-31T02:09:02.496Z,29.40
2022-07-31T02:11:32.230Z,29.50
2022-07-31T02:14:02.834Z,29.60
2022-07-31T02:16:33.407Z,29.70
2022-07-31T02:19:04.453Z,29.80
2022-07-31T02:21:33.898Z,29.90
2022-07-31T02:24:03.134Z,29.90
2022-07-31T02:26:33.459Z,29.90
2022-07-31T02:29:04.088Z,29.90
2022-07-31T02:31:36.489Z,29.90
2022-07-31T02:34:05.694Z,29.90
2022-07-31T02:36:36.317Z,30.00
2022-07-31T02:39:07.113Z,30.00
2022-07-31T02:41:38.104Z,30.10
2022-07-31T02:44:07.628Z,30.10
2022-07-31T02:46:37.468Z,30.20
2022-07-31T02:49:07.790Z,30.20
2022-07-31T02:51:38.793Z,30.30
2022-07-31T02:54:12.106Z,30.30
2022-07-31T02:56:42.489Z,30.40
2022-07-31T02:59:11.637Z,30.30
2022-07-31T03:01:40.767Z,30.40
2022-07-31T03:04:10.085Z,30.40
2022-07-31T03:06:39.265Z,30.50
2022-07-31T03:09:08.739Z,30.60
2022-07-31T03:11:38.501Z,30.70
2022-07-31T03:14:09.781Z,30.80
2022-07-31T03:16:40.534Z,31.00
2022-07-31T03:19:11.337Z,31.10
2022-07-31T03:21:41.574Z,31.30
2022-07-31T03:24:13.033Z,31.40
2022-07-31T03:26:42.499Z,31.60
2022-07-31T03:29:42.695Z,31.60
2022-07-31T03:32:02.766Z,31.60
2022-07-31T03:34:32.296Z,31.70
2022-07-31T03:37:01.622Z,31.70
2022-07-31T03:39:35.267Z,31.80
2022-07-31T03:42:04.825Z,31.90
2022-07-31T03:44:35.870Z,31.90
2022-07-31T03:47:05.791Z,32.00
2022-07-31T03:49:35.684Z,32.10
2022-07-31T03:52:09.882Z,32.20
2022-07-31T03:54:41.460Z,32.30
2022-07-31T03:57:11.425Z,32.30
2022-07-31T03:59:48.443Z,32.40
2022-07-31T04:02:19.114Z,32.40
2022-07-31T04:04:48.670Z,32.40
2022-07-31T04:07:18.258Z,32.40
2022-07-31T04:09:47.507Z,32.40
2022-07-31T04:12:16.732Z,32.40
2022-07-31T04:14:46.054Z,32.40
2022-07-31T04:17:15.232Z,32.50
2022-07-31T04:19:44.330Z,32.50
2022-07-31T04:22:13.496Z,32.40
2022-07-31T04:24:42.558Z,32.40
2022-07-31T04:27:12.967Z,32.40
2022-07-31T04:29:42.279Z,32.40
2022-07-31T04:32:11.413Z,32.30
2022-07-31T04:34:40.848Z,32.30
2022-07-31T04:37:10.775Z,32.40
2022-07-31T04:39:39.905Z,32.40
2022-07-31T04:42:11.462Z,32.40
2022-07-31T04:44:41.000Z,32.40
2022-07-31T04:47:10.125Z,32.40
2022-07-31T04:49:39.524Z,32.30
2022-07-31T04:52:09.943Z,32.30
2022-07-31T04:54:40.260Z,32.30
2022-07-31T04:57:09.380Z,32.30
2022-07-31T04:59:57.789Z,32.30
2022-07-31T05:02:27.745Z,32.30
2022-07-31T05:04:57.591Z,32.40
2022-07-31T05:07:28.995Z,32.40
2022-07-31T05:09:59.736Z,32.50
2022-07-31T05:12:29.128Z,32.50
2022-07-31T05:15:25.919Z,32.60
2022-07-31T05:17:55.259Z,32.70
2022-07-31T05:20:25.965Z,32.80
2022-07-31T05:22:55.327Z,32.90
2022-07-31T05:25:24.661Z,33.00
2022-07-31T05:27:54.676Z,33.10
2022-07-31T05:30:30.088Z,33.20
2022-07-31T05:33:00.185Z,33.20
2022-07-31T05:35:29.558Z,33.30
2022-07-31T05:37:58.926Z,33.40
2022-07-31T05:40:28.380Z,33.60
2022-07-31T05:42:57.771Z,33.90
2022-07-31T05:45:27.239Z,34.10
2022-07-31T05:47:56.625Z,34.40
2022-07-31T05:50:26.054Z,34.60
2022-07-31T05:52:56.296Z,34.80
2022-07-31T05:55:25.713Z,35.00
2022-07-31T05:57:55.249Z,35.10
2022-07-31T06:00:24.692Z,35.20
2022-07-31T06:02:54.217Z,35.20
2022-07-31T06:05:23.807Z,35.30
2022-07-31T06:07:53.471Z,35.20
2022-07-31T06:10:24.430Z,35.10
2022-07-31T06:12:53.606Z,35.00
2022-07-31T06:15:23.022Z,35.00
2022-07-31T06:17:52.213Z,35.10
2022-07-31T06:20:21.356Z,35.10
2022-07-31T06:22:50.518Z,35.10
2022-07-31T06:25:19.665Z,35.10
2022-07-31T06:27:52.052Z,35.10
2022-07-31T06:30:25.858Z,35.10
2022-07-31T06:32:55.054Z,35.00
2022-07-31T06:35:24.150Z,35.00
2022-07-31T06:37:53.218Z,34.90
2022-07-31T06:40:22.324Z,34.70
2022-07-31T06:42:51.538Z,34.40
2022-07-31T06:45:41.616Z,34.30
2022-07-31T06:48:09.890Z,34.10
2022-07-31T06:50:39.064Z,33.90
2022-07-31T06:53:08.206Z,33.70
2022-07-31T06:55:37.287Z,33.40
2022-07-31T06:58:13.921Z,33.20
2022-07-31T07:00:43.093Z,33.10
2022-07-31T07:03:12.083Z,33.00
2022-07-31T07:05:45.089Z,32.80
2022-07-31T07:08:14.519Z,32.60
2022-07-31T07:10:43.749Z,32.50
2022-07-31T07:13:12.783Z,32.30
2022-07-31T08:23:22.407Z,25.90
2022-07-31T08:26:31.791Z,25.90
2022-07-31T08:47:54.361Z,25.80
